sensor_id;sensor_type;location;lat;lon;timestamp;P1;P2;P0
60374;PMS5003;70244;48.792;9.172;2023-12-22T05:15:36;1;1;
60374;PMS5003;70244;48.792;9.172;2023-12-22T05:18:06;0;0;
60374;PMS5003;70244;48.792;9.172;2023-12-22T05:23:26;0;0;
60374;PMS5003;70244;48.792;9.172;2023-12-22T05:25:56;2;2;
60374;PMS5003;70244;48.792;9.172;2023-12-22T05:28:27;1;1;
60374;PMS5003;70244;48.792;9.172;2023-12-22T05:30:58;0;0;
60374;PMS5003;70244;48.792;9.172;2023-12-22T05:33:29;0;0;
60374;PMS5003;70244;48.792;9.172;2023-12-22T05:35:59;1;1;
60374;PMS5003;70244;48.792;9.172;2023-12-22T05:38:30;0;0;
60374;PMS5003;70244;48.792;9.172;2023-12-22T05:41:01;0;0;
60374;PMS5003;70244;48.792;9.172;2023-12-22T05:43:32;1;0;
60374;PMS5003;70244;48.792;9.172;2023-12-22T05:46:03;1;1;
60374;PMS5003;70244;48.792;9.172;2023-12-22T05:48:33;0;0;
60374;PMS5003;70244;48.792;9.172;2023-12-22T05:51:04;0;0;
60374;PMS5003;70244;48.792;9.172;2023-12-22T05:53:35;1;1;
60374;PMS5003;70244;48.792;9.172;2023-12-22T05:56:06;0;0;
60374;PMS5003;70244;48.792;9.172;2023-12-22T05:58:36;0;0;
60374;PMS5003;70244;48.792;9.172;2023-12-22T06:01:07;1;1;
60374;PMS5003;70244;48.792;9.172;2023-12-22T06:03:38;0;0;
60374;PMS5003;70244;48.792;9.172;2023-12-22T06:06:09;2;2;
60374;PMS5003;70244;48.792;9.172;2023-12-22T06:08:39;1;1;
60374;PMS5003;70244;48.792;9.172;2023-12-22T06:11:10;2;0;
60374;PMS5003;70244;48.792;9.172;2023-12-22T06:13:41;0;0;
60374;PMS5003;70244;48.792;9.172;2023-12-22T06:16:12;0;0;
60374;PMS5003;70244;48.792;9.172;2023-12-22T06:18:42;1;1;
60374;PMS5003;70244;48.792;9.172;2023-12-22T06:21:13;1;1;
60374;PMS5003;70244;48.792;9.172;2023-12-22T06:23:44;2;1;
60374;PMS5003;70244;48.792;9.172;2023-12-22T06:26:15;1;1;
60374;PMS5003;70244;48.792;9.172;2023-12-22T06:28:45;0;0;
60374;PMS5003;70244;48.792;9.172;2023-12-22T06:31:16;2;1;
60374;PMS5003;70244;48.792;9.172;2023-12-22T06:33:47;0;0;
60374;PMS5003;70244;48.792;9.172;2023-12-22T06:36:18;0;0;
60374;PMS5003;70244;48.792;9.172;2023-12-22T06:38:48;0;0;
60374;PMS5003;70244;48.792;9.172;2023-12-22T06:41:20;2;1;
60374;PMS5003;70244;48.792;9.172;2023-12-22T06:43:50;2;1;
60374;PMS5003;70244;48.792;9.172;2023-12-22T06:46:21;2;0;
60374;PMS5003;70244;48.792;9.172;2023-12-22T06:48:51;1;1;
60374;PMS5003;70244;48.792;9.172;2023-12-22T06:51:22;0;0;
60374;PMS5003;70244;48.792;9.172;2023-12-22T06:53:53;1;1;
60374;PMS5003;70244;48.792;9.172;2023-12-22T06:56:24;3;0;
60374;PMS5003;70244;48.792;9.172;2023-12-22T06:58:54;1;1;
60374;PMS5003;70244;48.792;9.172;2023-12-22T07:01:27;1;1;
60374;PMS5003;70244;48.792;9.172;2023-12-22T07:03:55;1;1;
60374;PMS5003;70244;48.792;9.172;2023-12-22T07:06:26;0;0;
60374;PMS5003;70244;48.792;9.172;2023-12-22T07:08:57;0;0;
60374;PMS5003;70244;48.792;9.172;2023-12-22T07:11:27;0;0;
60374;PMS5003;70244;48.792;9.172;2023-12-22T07:13:58;1;1;
60374;PMS5003;70244;48.792;9.172;2023-12-22T07:16:29;1;1;
60374;PMS5003;70244;48.792;9.172;2023-12-22T07:19:00;4;1;
60374;PMS5003;70244;48.792;9.172;2023-12-22T07:21:30;1;1;
60374;PMS5003;70244;48.792;9.172;2023-12-22T07:24:01;0;0;
60374;PMS5003;70244;48.792;9.172;2023-12-22T07:26:32;0;0;
60374;PMS5003;70244;48.792;9.172;2023-12-22T07:29:02;0;0;
60374;PMS5003;70244;48.792;9.172;2023-12-22T07:31:33;1;1;
60374;PMS5003;70244;48.792;9.172;2023-12-22T07:34:04;0;0;
60374;PMS5003;70244;48.792;9.172;2023-12-22T07:36:35;1;1;
60374;PMS5003;70244;48.792;9.172;2023-12-22T07:39:05;1;1;
60374;PMS5003;70244;48.792;9.172;2023-12-22T07:41:36;1;1;
60374;PMS5003;70244;48.792;9.172;2023-12-22T07:44:07;0;0;
60374;PMS5003;70244;48.792;9.172;2023-12-22T07:46:38;2;0;
60374;PMS5003;70244;48.792;9.172;2023-12-22T07:49:08;3;1;
60374;PMS5003;70244;48.792;9.172;2023-12-22T07:51:39;3;0;
60374;PMS5003;70244;48.792;9.172;2023-12-22T07:54:10;1;1;
60374;PMS5003;70244;48.792;9.172;2023-12-22T07:56:41;1;1;
60374;PMS5003;70244;48.792;9.172;2023-12-22T07:59:11;1;1;
60374;PMS5003;70244;48.792;9.172;2023-12-22T08:01:42;4;2;
60374;PMS5003;70244;48.792;9.172;2023-12-22T08:04:13;2;2;
60374;PMS5003;70244;48.792;9.172;2023-12-22T08:06:44;3;2;
60374;PMS5003;70244;48.792;9.172;2023-12-22T08:09:14;1;1;
60374;PMS5003;70244;48.792;9.172;2023-12-22T08:11:45;3;0;
60374;PMS5003;70244;48.792;9.172;2023-12-22T08:14:16;1;1;
60374;PMS5003;70244;48.792;9.172;2023-12-22T08:16:46;4;2;
60374;PMS5003;70244;48.792;9.172;2023-12-22T08:19:17;3;2;
60374;PMS5003;70244;48.792;9.172;2023-12-22T08:21:48;0;0;
60374;PMS5003;70244;48.792;9.172;2023-12-22T08:24:18;1;1;
60374;PMS5003;70244;48.792;9.172;2023-12-22T08:26:49;2;1;
60374;PMS5003;70244;48.792;9.172;2023-12-22T08:29:20;1;1;
60374;PMS5003;70244;48.792;9.172;2023-12-22T08:31:51;3;1;
60374;PMS5003;70244;48.792;9.172;2023-12-22T08:34:21;2;2;
60374;PMS5003;70244;48.792;9.172;2023-12-22T08:36:52;0;0;
60374;PMS5003;70244;48.792;9.172;2023-12-22T08:39:23;1;1;
60374;PMS5003;70244;48.792;9.172;2023-12-22T08:41:53;2;1;
60374;PMS5003;70244;48.792;9.172;2023-12-22T08:44:24;1;1;
60374;PMS5003;70244;48.792;9.172;2023-12-22T08:46:55;3;2;
60374;PMS5003;70244;48.792;9.172;2023-12-22T08:49:25;1;1;
60374;PMS5003;70244;48.792;9.172;2023-12-22T08:51:56;2;2;
60374;PMS5003;70244;48.792;9.172;2023-12-22T08:54:27;3;2;
60374;PMS5003;70244;48.792;9.172;2023-12-22T08:56:58;2;1;
60374;PMS5003;70244;48.792;9.172;2023-12-22T08:59:28;0;0;
60374;PMS5003;70244;48.792;9.172;2023-12-22T09:01:59;1;1;
60374;PMS5003;70244;48.792;9.172;2023-12-22T09:04:30;1;1;
60374;PMS5003;70244;48.792;9.172;2023-12-22T09:07:00;1;1;
60374;PMS5003;70244;48.792;9.172;2023-12-22T09:09:31;3;2;
60374;PMS5003;70244;48.792;9.172;2023-12-22T09:12:02;3;0;
60374;PMS5003;70244;48.792;9.172;2023-12-22T09:14:33;1;1;
60374;PMS5003;70244;48.792;9.172;2023-12-22T09:17:03;0;0;
60374;PMS5003;70244;48.792;9.172;2023-12-22T09:19:34;3;2;
60374;PMS5003;70244;48.792;9.172;2023-12-22T09:22:05;0;0;
60374;PMS5003;70244;48.792;9.172;2023-12-22T09:24:36;2;1;
60374;PMS5003;70244;48.792;9.172;2023-12-22T09:27:06;0;0;
60374;PMS5003;70244;48.792;9.172;2023-12-22T09:29:37;0;0;
60374;PMS5003;70244;48.792;9.172;2023-12-22T09:32:08;0;0;
60374;PMS5003;70244;48.792;9.172;2023-12-22T09:34:38;1;1;
60374;PMS5003;70244;48.792;9.172;2023-12-22T09:37:09;2;1;
60374;PMS5003;70244;48.792;9.172;2023-12-22T09:39:40;3;1;
60374;PMS5003;70244;48.792;9.172;2023-12-22T09:42:10;2;1;
60374;PMS5003;70244;48.792;9.172;2023-12-22T09:44:41;0;0;
60374;PMS5003;70244;48.792;9.172;2023-12-22T09:47:12;3;1;
60374;PMS5003;70244;48.792;9.172;2023-12-22T09:49:43;0;0;
60374;PMS5003;70244;48.792;9.172;2023-12-22T09:52:13;0;0;
60374;PMS5003;70244;48.792;9.172;2023-12-22T09:54:44;0;0;
60374;PMS5003;70244;48.792;9.172;2023-12-22T09:57:15;1;1;
60374;PMS5003;70244;48.792;9.172;2023-12-22T09:59:45;1;0;
60374;PMS5003;70244;48.792;9.172;2023-12-22T10:02:16;0;0;
60374;PMS5003;70244;48.792;9.172;2023-12-22T10:04:47;1;0;
60374;PMS5003;70244;48.792;9.172;2023-12-22T10:07:17;1;1;
60374;PMS5003;70244;48.792;9.172;2023-12-22T10:09:48;0;0;
60374;PMS5003;70244;48.792;9.172;2023-12-22T10:12:19;0;0;
60374;PMS5003;70244;48.792;9.172;2023-12-22T10:14:50;1;1;
60374;PMS5003;70244;48.792;9.172;2023-12-22T10:17:20;0;0;
60374;PMS5003;70244;48.792;9.172;2023-12-22T10:19:51;0;0;
60374;PMS5003;70244;48.792;9.172;2023-12-22T10:22:22;0;0;
60374;PMS5003;70244;48.792;9.172;2023-12-22T10:24:53;0;0;
60374;PMS5003;70244;48.792;9.172;2023-12-22T10:27:23;1;1;
60374;PMS5003;70244;48.792;9.172;2023-12-22T10:29:55;3;1;
60374;PMS5003;70244;48.792;9.172;2023-12-22T10:32:25;2;0;
60374;PMS5003;70244;48.792;9.172;2023-12-22T10:34:56;0;0;
60374;PMS5003;70244;48.792;9.172;2023-12-22T10:37:26;2;1;
60374;PMS5003;70244;48.792;9.172;2023-12-22T10:39:57;0;0;
60374;PMS5003;70244;48.792;9.172;2023-12-22T10:42:28;1;1;
60374;PMS5003;70244;48.792;9.172;2023-12-22T10:44:58;1;1;
60374;PMS5003;70244;48.792;9.172;2023-12-22T10:47:29;1;1;
60374;PMS5003;70244;48.792;9.172;2023-12-22T10:50:01;0;0;
60374;PMS5003;70244;48.792;9.172;2023-12-22T10:52:30;0;0;
60374;PMS5003;70244;48.792;9.172;2023-12-22T10:55:01;1;1;
60374;PMS5003;70244;48.792;9.172;2023-12-22T10:57:32;0;0;
60374;PMS5003;70244;48.792;9.172;2023-12-22T11:00:03;0;0;
60374;PMS5003;70244;48.792;9.172;2023-12-22T11:02:34;0;0;
60374;PMS5003;70244;48.792;9.172;2023-12-22T11:05:04;0;0;
60374;PMS5003;70244;48.792;9.172;2023-12-22T11:07:35;0;0;
60374;PMS5003;70244;48.792;9.172;2023-12-22T11:10:06;1;1;
60374;PMS5003;70244;48.792;9.172;2023-12-22T11:12:36;0;0;
60374;PMS5003;70244;48.792;9.172;2023-12-22T11:15:07;0;0;
60374;PMS5003;70244;48.792;9.172;2023-12-22T11:17:37;0;0;
60374;PMS5003;70244;48.792;9.172;2023-12-22T11:20:09;1;0;
60374;PMS5003;70244;48.792;9.172;2023-12-22T11:22:39;0;0;
60374;PMS5003;70244;48.792;9.172;2023-12-22T11:25:10;2;0;
60374;PMS5003;70244;48.792;9.172;2023-12-22T11:27:40;0;0;
60374;PMS5003;70244;48.792;9.172;2023-12-22T11:30:11;1;1;
60374;PMS5003;70244;48.792;9.172;2023-12-22T11:32:42;0;0;
60374;PMS5003;70244;48.792;9.172;2023-12-22T11:35:12;1;1;
60374;PMS5003;70244;48.792;9.172;2023-12-22T11:37:43;0;0;
60374;PMS5003;70244;48.792;9.172;2023-12-22T11:40:14;0;0;
60374;PMS5003;70244;48.792;9.172;2023-12-22T11:42:45;0;0;
60374;PMS5003;70244;48.792;9.172;2023-12-22T11:45:15;2;0;
60374;PMS5003;70244;48.792;9.172;2023-12-22T11:47:46;1;1;
60374;PMS5003;70244;48.792;9.172;2023-12-22T11:52:47;1;0;
60374;PMS5003;70244;48.792;9.172;2023-12-22T11:55:18;1;1;
60374;PMS5003;70244;48.792;9.172;2023-12-22T11:57:49;1;1;
60374;PMS5003;70244;48.792;9.172;2023-12-22T12:02:53;0;0;
60374;PMS5003;70244;48.792;9.172;2023-12-22T12:05:21;0;0;
60374;PMS5003;70244;48.792;9.172;2023-12-22T12:07:52;1;1;
60374;PMS5003;70244;48.792;9.172;2023-12-22T12:15:24;0;0;
60374;PMS5003;70244;48.792;9.172;2023-12-22T12:17:54;0;0;
60374;PMS5003;70244;48.792;9.172;2023-12-22T12:20:25;1;1;
60374;PMS5003;70244;48.792;9.172;2023-12-22T12:23:04;0;0;
60374;PMS5003;70244;48.792;9.172;2023-12-22T12:25:27;0;0;
60374;PMS5003;70244;48.792;9.172;2023-12-22T12:28:01;0;0;
60374;PMS5003;70244;48.792;9.172;2023-12-22T12:30:28;1;1;
60374;PMS5003;70244;48.792;9.172;2023-12-22T12:32:59;1;0;
60374;PMS5003;70244;48.792;9.172;2023-12-22T12:35:29;0;0;
60374;PMS5003;70244;48.792;9.172;2023-12-22T12:38:05;0;0;
60374;PMS5003;70244;48.792;9.172;2023-12-22T12:40:31;1;1;
60374;PMS5003;70244;48.792;9.172;2023-12-22T12:43:02;0;0;
60374;PMS5003;70244;48.792;9.172;2023-12-22T12:45:32;1;1;
60374;PMS5003;70244;48.792;9.172;2023-12-22T12:48:03;0;0;
60374;PMS5003;70244;48.792;9.172;2023-12-22T12:50:34;0;0;
60374;PMS5003;70244;48.792;9.172;2023-12-22T12:53:04;2;0;
60374;PMS5003;70244;48.792;9.172;2023-12-22T12:55:35;0;0;
60374;PMS5003;70244;48.792;9.172;2023-12-22T12:58:06;0;0;
60374;PMS5003;70244;48.792;9.172;2023-12-22T13:00:36;0;0;
60374;PMS5003;70244;48.792;9.172;2023-12-22T13:03:07;0;0;
60374;PMS5003;70244;48.792;9.172;2023-12-22T13:05:38;0;0;
60374;PMS5003;70244;48.792;9.172;2023-12-22T13:08:09;5;0;
60374;PMS5003;70244;48.792;9.172;2023-12-22T13:10:40;1;1;
60374;PMS5003;70244;48.792;9.172;2023-12-22T13:13:10;2;0;
60374;PMS5003;70244;48.792;9.172;2023-12-22T13:15:41;0;0;
60374;PMS5003;70244;48.792;9.172;2023-12-22T13:18:12;0;0;
60374;PMS5003;70244;48.792;9.172;2023-12-22T13:20:42;1;0;
60374;PMS5003;70244;48.792;9.172;2023-12-22T13:23:16;0;0;
60374;PMS5003;70244;48.792;9.172;2023-12-22T13:25:44;0;0;
60374;PMS5003;70244;48.792;9.172;2023-12-22T13:28:14;1;0;
60374;PMS5003;70244;48.792;9.172;2023-12-22T13:30:45;0;0;
60374;PMS5003;70244;48.792;9.172;2023-12-22T13:33:16;0;0;
60374;PMS5003;70244;48.792;9.172;2023-12-22T13:35:47;0;0;
60374;PMS5003;70244;48.792;9.172;2023-12-22T13:38:17;0;0;
60374;PMS5003;70244;48.792;9.172;2023-12-22T13:40:48;0;0;
60374;PMS5003;70244;48.792;9.172;2023-12-22T13:43:19;3;0;
60374;PMS5003;70244;48.792;9.172;2023-12-22T13:45:49;0;0;
60374;PMS5003;70244;48.792;9.172;2023-12-22T13:48:20;0;0;
60374;PMS5003;70244;48.792;9.172;2023-12-22T13:53:21;0;0;
60374;PMS5003;70244;48.792;9.172;2023-12-22T13:55:54;0;0;
60374;PMS5003;70244;48.792;9.172;2023-12-22T13:58:23;0;0;
60374;PMS5003;70244;48.792;9.172;2023-12-22T14:00:53;0;0;
60374;PMS5003;70244;48.792;9.172;2023-12-22T14:03:24;0;0;
60374;PMS5003;70244;48.792;9.172;2023-12-22T14:05:55;1;0;
60374;PMS5003;70244;48.792;9.172;2023-12-22T14:08:26;0;0;
60374;PMS5003;70244;48.792;9.172;2023-12-22T14:10:56;0;0;
60374;PMS5003;70244;48.792;9.172;2023-12-22T14:13:27;0;0;
60374;PMS5003;70244;48.792;9.172;2023-12-22T14:15:58;1;0;
60374;PMS5003;70244;48.792;9.172;2023-12-22T14:18:28;0;0;
60374;PMS5003;70244;48.792;9.172;2023-12-22T14:20:59;0;0;
60374;PMS5003;70244;48.792;9.172;2023-12-22T14:23:30;0;0;
60374;PMS5003;70244;48.792;9.172;2023-12-22T14:26:01;0;0;
60374;PMS5003;70244;48.792;9.172;2023-12-22T14:28:31;1;0;
60374;PMS5003;70244;48.792;9.172;2023-12-22T14:31:02;2;2;
60374;PMS5003;70244;48.792;9.172;2023-12-22T14:33:33;0;0;
60374;PMS5003;70244;48.792;9.172;2023-12-22T14:36:04;1;0;
60374;PMS5003;70244;48.792;9.172;2023-12-22T14:38:34;0;0;
60374;PMS5003;70244;48.792;9.172;2023-12-22T14:41:06;0;0;
60374;PMS5003;70244;48.792;9.172;2023-12-22T14:43:36;0;0;
60374;PMS5003;70244;48.792;9.172;2023-12-22T14:46:06;0;0;
60374;PMS5003;70244;48.792;9.172;2023-12-22T14:48:37;2;1;
60374;PMS5003;70244;48.792;9.172;2023-12-22T14:51:08;3;1;
60374;PMS5003;70244;48.792;9.172;2023-12-22T14:53:38;2;2;
60374;PMS5003;70244;48.792;9.172;2023-12-22T14:56:09;2;2;
60374;PMS5003;70244;48.792;9.172;2023-12-22T14:58:40;0;0;
60374;PMS5003;70244;48.792;9.172;2023-12-22T15:01:11;0;0;
60374;PMS5003;70244;48.792;9.172;2023-12-22T15:03:41;1;1;
60374;PMS5003;70244;48.792;9.172;2023-12-22T15:06:12;1;0;
60374;PMS5003;70244;48.792;9.172;2023-12-22T15:08:42;1;1;
60374;PMS5003;70244;48.792;9.172;2023-12-22T15:11:13;2;1;
60374;PMS5003;70244;48.792;9.172;2023-12-22T15:13:44;1;1;
60374;PMS5003;70244;48.792;9.172;2023-12-22T15:16:15;0;0;
60374;PMS5003;70244;48.792;9.172;2023-12-22T15:18:45;4;0;
60374;PMS5003;70244;48.792;9.172;2023-12-22T15:21:19;0;0;
60374;PMS5003;70244;48.792;9.172;2023-12-22T15:23:47;0;0;
60374;PMS5003;70244;48.792;9.172;2023-12-22T15:26:21;0;0;
60374;PMS5003;70244;48.792;9.172;2023-12-22T15:28:48;1;0;
60374;PMS5003;70244;48.792;9.172;2023-12-22T15:31:19;0;0;
60374;PMS5003;70244;48.792;9.172;2023-12-22T15:33:50;0;0;
60374;PMS5003;70244;48.792;9.172;2023-12-22T15:36:20;0;0;
60374;PMS5003;70244;48.792;9.172;2023-12-22T15:38:51;0;0;
60374;PMS5003;70244;48.792;9.172;2023-12-22T15:41:22;0;0;
60374;PMS5003;70244;48.792;9.172;2023-12-22T15:43:52;0;0;
60374;PMS5003;70244;48.792;9.172;2023-12-22T15:46:23;3;0;
60374;PMS5003;70244;48.792;9.172;2023-12-22T15:48:54;0;0;
60374;PMS5003;70244;48.792;9.172;2023-12-22T15:51:24;0;0;
60374;PMS5003;70244;48.792;9.172;2023-12-22T15:53:55;0;0;
60374;PMS5003;70244;48.792;9.172;2023-12-22T15:56:26;0;0;
60374;PMS5003;70244;48.792;9.172;2023-12-22T15:58:57;1;1;
60374;PMS5003;70244;48.792;9.172;2023-12-22T16:01:27;1;1;
60374;PMS5003;70244;48.792;9.172;2023-12-22T16:03:58;0;0;
60374;PMS5003;70244;48.792;9.172;2023-12-22T16:06:29;1;1;
60374;PMS5003;70244;48.792;9.172;2023-12-22T16:08:59;1;0;
60374;PMS5003;70244;48.792;9.172;2023-12-22T16:11:30;1;1;
60374;PMS5003;70244;48.792;9.172;2023-12-22T16:14:01;2;1;
60374;PMS5003;70244;48.792;9.172;2023-12-22T16:16:32;0;0;
60374;PMS5003;70244;48.792;9.172;2023-12-22T16:19:02;0;0;
60374;PMS5003;70244;48.792;9.172;2023-12-22T16:21:33;0;0;
60374;PMS5003;70244;48.792;9.172;2023-12-22T16:24:04;0;0;
60374;PMS5003;70244;48.792;9.172;2023-12-22T16:26:34;0;0;
60374;PMS5003;70244;48.792;9.172;2023-12-22T16:29:05;0;0;
60374;PMS5003;70244;48.792;9.172;2023-12-22T16:31:37;0;0;
60374;PMS5003;70244;48.792;9.172;2023-12-22T16:34:06;0;0;
60374;PMS5003;70244;48.792;9.172;2023-12-22T16:36:37;0;0;
60374;PMS5003;70244;48.792;9.172;2023-12-22T16:39:08;0;0;
60374;PMS5003;70244;48.792;9.172;2023-12-22T16:41:39;0;0;
60374;PMS5003;70244;48.792;9.172;2023-12-22T16:44:09;0;0;
60374;PMS5003;70244;48.792;9.172;2023-12-22T16:46:40;0;0;
60374;PMS5003;70244;48.792;9.172;2023-12-22T16:49:11;0;0;
60374;PMS5003;70244;48.792;9.172;2023-12-22T16:51:41;0;0;
60374;PMS5003;70244;48.792;9.172;2023-12-22T16:54:12;0;0;
60374;PMS5003;70244;48.792;9.172;2023-12-22T16:56:43;0;0;
60374;PMS5003;70244;48.792;9.172;2023-12-22T16:59:13;0;0;
60374;PMS5003;70244;48.792;9.172;2023-12-22T17:01:44;0;0;
60374;PMS5003;70244;48.792;9.172;2023-12-22T17:04:15;2;1;
60374;PMS5003;70244;48.792;9.172;2023-12-22T17:06:46;2;2;
60374;PMS5003;70244;48.792;9.172;2023-12-22T17:09:16;0;0;
60374;PMS5003;70244;48.792;9.172;2023-12-22T17:11:47;2;0;
60374;PMS5003;70244;48.792;9.172;2023-12-22T17:14:18;0;0;
60374;PMS5003;70244;48.792;9.172;2023-12-22T17:16:49;2;1;
60374;PMS5003;70244;48.792;9.172;2023-12-22T17:19:19;0;0;
60374;PMS5003;70244;48.792;9.172;2023-12-22T17:21:50;0;0;
60374;PMS5003;70244;48.792;9.172;2023-12-22T17:24:21;2;2;
60374;PMS5003;70244;48.792;9.172;2023-12-22T17:26:51;1;0;
60374;PMS5003;70244;48.792;9.172;2023-12-22T17:29:22;0;0;
60374;PMS5003;70244;48.792;9.172;2023-12-22T17:31:53;0;0;
60374;PMS5003;70244;48.792;9.172;2023-12-22T17:34:23;1;0;
60374;PMS5003;70244;48.792;9.172;2023-12-22T17:36:54;0;0;
60374;PMS5003;70244;48.792;9.172;2023-12-22T17:39:25;0;0;
60374;PMS5003;70244;48.792;9.172;2023-12-22T17:41:56;1;1;
60374;PMS5003;70244;48.792;9.172;2023-12-22T17:44:26;0;0;
60374;PMS5003;70244;48.792;9.172;2023-12-22T17:46:57;0;0;
60374;PMS5003;70244;48.792;9.172;2023-12-22T17:49:28;0;0;
60374;PMS5003;70244;48.792;9.172;2023-12-22T17:51:58;0;0;
60374;PMS5003;70244;48.792;9.172;2023-12-22T17:54:29;0;0;
60374;PMS5003;70244;48.792;9.172;2023-12-22T17:57:00;0;0;
60374;PMS5003;70244;48.792;9.172;2023-12-22T17:59:31;1;1;
60374;PMS5003;70244;48.792;9.172;2023-12-22T18:02:01;0;0;
60374;PMS5003;70244;48.792;9.172;2023-12-22T18:04:32;1;0;
60374;PMS5003;70244;48.792;9.172;2023-12-22T18:07:03;1;0;
60374;PMS5003;70244;48.792;9.172;2023-12-22T18:09:37;2;0;
60374;PMS5003;70244;48.792;9.172;2023-12-22T18:12:05;1;0;
60374;PMS5003;70244;48.792;9.172;2023-12-22T18:14:35;1;1;
60374;PMS5003;70244;48.792;9.172;2023-12-22T18:17:06;2;0;
60374;PMS5003;70244;48.792;9.172;2023-12-22T18:19:36;0;0;
60374;PMS5003;70244;48.792;9.172;2023-12-22T18:22:07;0;0;
60374;PMS5003;70244;48.792;9.172;2023-12-22T18:24:38;0;0;
60374;PMS5003;70244;48.792;9.172;2023-12-22T18:27:09;0;0;
60374;PMS5003;70244;48.792;9.172;2023-12-22T18:29:39;1;1;
60374;PMS5003;70244;48.792;9.172;2023-12-22T18:32:10;1;1;
60374;PMS5003;70244;48.792;9.172;2023-12-22T18:34:40;15;15;
60374;PMS5003;70244;48.792;9.172;2023-12-22T18:37:10;245;217;
60374;PMS5003;70244;48.792;9.172;2023-12-22T18:39:40;734;633;
60374;PMS5003;70244;48.792;9.172;2023-12-22T18:42:11;262;232;
60374;PMS5003;70244;48.792;9.172;2023-12-22T18:44:41;204;186;
60374;PMS5003;70244;48.792;9.172;2023-12-22T18:47:12;222;190;
60374;PMS5003;70244;48.792;9.172;2023-12-22T18:49:42;224;204;
60374;PMS5003;70244;48.792;9.172;2023-12-22T18:52:13;193;177;
60374;PMS5003;70244;48.792;9.172;2023-12-22T18:54:43;186;162;
60374;PMS5003;70244;48.792;9.172;2023-12-22T18:57:14;148;135;
60374;PMS5003;70244;48.792;9.172;2023-12-22T18:59:45;123;113;
60374;PMS5003;70244;48.792;9.172;2023-12-22T19:02:15;133;115;
60374;PMS5003;70244;48.792;9.172;2023-12-22T19:04:45;103;95;
60374;PMS5003;70244;48.792;9.172;2023-12-22T19:07:16;104;96;
60374;PMS5003;70244;48.792;9.172;2023-12-22T19:09:46;91;89;
60374;PMS5003;70244;48.792;9.172;2023-12-22T19:12:16;95;85;
60374;PMS5003;70244;48.792;9.172;2023-12-22T19:14:47;96;85;
60374;PMS5003;70244;48.792;9.172;2023-12-22T19:17:17;94;85;
60374;PMS5003;70244;48.792;9.172;2023-12-22T19:19:48;96;88;
60374;PMS5003;70244;48.792;9.172;2023-12-22T19:22:19;88;80;
60374;PMS5003;70244;48.792;9.172;2023-12-22T19:24:49;72;68;
60374;PMS5003;70244;48.792;9.172;2023-12-22T19:27:19;76;68;
60374;PMS5003;70244;48.792;9.172;2023-12-22T19:29:49;74;68;
60374;PMS5003;70244;48.792;9.172;2023-12-22T19:32:20;78;69;
60374;PMS5003;70244;48.792;9.172;2023-12-22T19:34:51;75;66;
60374;PMS5003;70244;48.792;9.172;2023-12-22T19:37:21;65;60;
60374;PMS5003;70244;48.792;9.172;2023-12-22T19:39:51;60;55;
60374;PMS5003;70244;48.792;9.172;2023-12-22T19:42:22;56;50;
60374;PMS5003;70244;48.792;9.172;2023-12-22T19:44:52;60;52;
60374;PMS5003;70244;48.792;9.172;2023-12-22T19:47:22;62;55;
60374;PMS5003;70244;48.792;9.172;2023-12-22T19:49:53;59;56;
60374;PMS5003;70244;48.792;9.172;2023-12-22T19:52:23;59;53;
60374;PMS5003;70244;48.792;9.172;2023-12-22T19:54:54;58;53;
60374;PMS5003;70244;48.792;9.172;2023-12-22T19:57:24;49;48;
60374;PMS5003;70244;48.792;9.172;2023-12-22T19:59:55;55;51;
60374;PMS5003;70244;48.792;9.172;2023-12-22T20:02:25;59;51;
60374;PMS5003;70244;48.792;9.172;2023-12-22T20:04:55;51;50;
60374;PMS5003;70244;48.792;9.172;2023-12-22T20:07:25;51;51;
60374;PMS5003;70244;48.792;9.172;2023-12-22T20:09:56;43;40;
60374;PMS5003;70244;48.792;9.172;2023-12-22T20:12:27;43;41;
60374;PMS5003;70244;48.792;9.172;2023-12-22T20:14:57;46;38;
60374;PMS5003;70244;48.792;9.172;2023-12-22T20:17:27;51;42;
60374;PMS5003;70244;48.792;9.172;2023-12-22T20:19:58;45;43;
60374;PMS5003;70244;48.792;9.172;2023-12-22T20:22:28;46;39;
60374;PMS5003;70244;48.792;9.172;2023-12-22T20:24:59;41;39;
60374;PMS5003;70244;48.792;9.172;2023-12-22T20:27:29;42;41;
60374;PMS5003;70244;48.792;9.172;2023-12-22T20:30:00;39;39;
60374;PMS5003;70244;48.792;9.172;2023-12-22T20:32:30;42;37;
60374;PMS5003;70244;48.792;9.172;2023-12-22T20:35:00;36;35;
60374;PMS5003;70244;48.792;9.172;2023-12-22T20:37:30;36;35;
60374;PMS5003;70244;48.792;9.172;2023-12-22T20:40:00;37;35;
60374;PMS5003;70244;48.792;9.172;2023-12-22T20:42:31;44;37;
60374;PMS5003;70244;48.792;9.172;2023-12-22T20:45:02;43;38;
60374;PMS5003;70244;48.792;9.172;2023-12-22T20:47:32;42;33;
60374;PMS5003;70244;48.792;9.172;2023-12-22T20:50:02;36;31;
60374;PMS5003;70244;48.792;9.172;2023-12-22T20:52:32;35;31;
60374;PMS5003;70244;48.792;9.172;2023-12-22T20:55:02;32;31;
60374;PMS5003;70244;48.792;9.172;2023-12-22T20:57:32;36;33;
60374;PMS5003;70244;48.792;9.172;2023-12-22T21:00:03;36;32;
60374;PMS5003;70244;48.792;9.172;2023-12-22T21:02:33;36;33;
60374;PMS5003;70244;48.792;9.172;2023-12-22T21:05:03;39;33;
60374;PMS5003;70244;48.792;9.172;2023-12-22T21:07:34;31;28;
60374;PMS5003;70244;48.792;9.172;2023-12-22T21:10:05;33;30;
60374;PMS5003;70244;48.792;9.172;2023-12-22T21:12:35;34;31;
60374;PMS5003;70244;48.792;9.172;2023-12-22T21:15:05;26;26;
60374;PMS5003;70244;48.792;9.172;2023-12-22T21:17:35;33;29;
60374;PMS5003;70244;48.792;9.172;2023-12-22T21:20:06;30;29;
60374;PMS5003;70244;48.792;9.172;2023-12-22T21:22:36;29;25;
60374;PMS5003;70244;48.792;9.172;2023-12-22T21:25:06;34;29;
60374;PMS5003;70244;48.792;9.172;2023-12-22T21:27:37;29;26;
60374;PMS5003;70244;48.792;9.172;2023-12-22T21:30:07;28;28;
60374;PMS5003;70244;48.792;9.172;2023-12-22T21:32:37;29;27;
60374;PMS5003;70244;48.792;9.172;2023-12-22T21:35:08;35;30;
60374;PMS5003;70244;48.792;9.172;2023-12-22T21:37:38;33;27;
60374;PMS5003;70244;48.792;9.172;2023-12-22T21:40:09;30;27;
60374;PMS5003;70244;48.792;9.172;2023-12-22T21:42:40;32;28;
60374;PMS5003;70244;48.792;9.172;2023-12-22T21:45:11;26;25;
60374;PMS5003;70244;48.792;9.172;2023-12-22T21:47:41;25;22;
60374;PMS5003;70244;48.792;9.172;2023-12-22T21:50:11;33;28;
60374;PMS5003;70244;48.792;9.172;2023-12-22T21:52:41;26;22;
60374;PMS5003;70244;48.792;9.172;2023-12-22T21:55:12;27;25;
60374;PMS5003;70244;48.792;9.172;2023-12-22T21:57:42;23;22;
60374;PMS5003;70244;48.792;9.172;2023-12-22T22:00:12;24;23;
60374;PMS5003;70244;48.792;9.172;2023-12-22T22:02:43;30;27;
60374;PMS5003;70244;48.792;9.172;2023-12-22T22:05:13;24;23;
60374;PMS5003;70244;48.792;9.172;2023-12-22T22:07:44;22;22;
60374;PMS5003;70244;48.792;9.172;2023-12-22T22:10:14;23;22;
60374;PMS5003;70244;48.792;9.172;2023-12-22T22:12:45;24;22;
60374;PMS5003;70244;48.792;9.172;2023-12-22T22:15:15;25;22;
60374;PMS5003;70244;48.792;9.172;2023-12-22T22:17:46;27;26;
60374;PMS5003;70244;48.792;9.172;2023-12-22T22:20:16;24;20;
60374;PMS5003;70244;48.792;9.172;2023-12-22T22:22:46;30;24;
60374;PMS5003;70244;48.792;9.172;2023-12-22T22:25:17;23;21;
60374;PMS5003;70244;48.792;9.172;2023-12-22T22:27:47;25;22;
60374;PMS5003;70244;48.792;9.172;2023-12-22T22:30:18;23;22;
60374;PMS5003;70244;48.792;9.172;2023-12-22T22:32:49;23;23;
60374;PMS5003;70244;48.792;9.172;2023-12-22T22:35:20;25;19;